sensor_id;sensor_type;location;lat;lon;timestamp;pressure;altitude;pressure_sealevel;temperature;humidity
46614;BME280;32338;50.430;6.806;2022-08-21T00:02:21;96901.94;;;13.55;100.00
46614;BME280;32338;50.430;6.806;2022-08-21T00:04:50;96906.66;;;13.60;99.49
46614;BME280;32338;50.430;6.806;2022-08-21T00:07:18;96908.66;;;13.58;99.31
46614;BME280;32338;50.430;6.806;2022-08-21T00:09:45;96902.34;;;13.52;99.97
46614;BME280;32338;50.430;6.806;2022-08-21T00:12:12;96903.16;;;13.53;99.38
46614;BME280;32338;50.430;6.806;2022-08-21T00:14:39;96904.59;;;13.49;100.00
46614;BME280;32338;50.430;6.806;2022-08-21T00:17:06;96896.63;;;13.42;97.81
46614;BME280;32338;50.430;6.806;2022-08-21T00:19:33;96902.09;;;13.34;98.77
46614;BME280;32338;50.430;6.806;2022-08-21T00:22:01;96892.50;;;13.33;100.00
46614;BME280;32338;50.430;6.806;2022-08-21T00:24:28;96891.28;;;13.28;100.00
46614;BME280;32338;50.430;6.806;2022-08-21T00:26:55;96882.06;;;13.24;100.00
46614;BME280;32338;50.430;6.806;2022-08-21T00:29:21;96882.09;;;13.31;100.00
46614;BME280;32338;50.430;6.806;2022-08-21T00:31:48;96881.06;;;13.25;100.00
46614;BME280;32338;50.430;6.806;2022-08-21T00:34:15;96882.28;;;13.23;100.00
46614;BME280;32338;50.430;6.806;2022-08-21T00:36:41;96883.25;;;12.88;100.00
46614;BME280;32338;50.430;6.806;2022-08-21T00:39:10;96883.72;;;12.57;100.00
46614;BME280;32338;50.430;6.806;2022-08-21T00:41:37;96887.06;;;12.72;100.00
46614;BME280;32338;50.430;6.806;2022-08-21T00:44:07;96887.28;;;12.71;100.00
46614;BME280;32338;50.430;6.806;2022-08-21T00:46:34;96886.44;;;12.77;100.00
46614;BME280;32338;50.430;6.806;2022-08-21T00:49:01;96884.84;;;12.82;100.00
46614;BME280;32338;50.430;6.806;2022-08-21T00:51:33;96882.41;;;12.81;100.00
46614;BME280;32338;50.430;6.806;2022-08-21T00:54:02;96887.31;;;12.84;100.00
46614;BME280;32338;50.430;6.806;2022-08-21T00:56:31;96885.88;;;12.81;100.00
46614;BME280;32338;50.430;6.806;2022-08-21T00:58:58;96880.78;;;12.80;100.00
46614;BME280;32338;50.430;6.806;2022-08-21T01:01:26;96881.41;;;12.82;100.00
46614;BME280;32338;50.430;6.806;2022-08-21T01:03:53;96880.78;;;12.80;100.00
46614;BME280;32338;50.430;6.806;2022-08-21T01:06:20;96876.25;;;12.74;100.00
46614;BME280;32338;50.430;6.806;2022-08-21T01:08:47;96883.00;;;12.70;100.00
46614;BME280;32338;50.430;6.806;2022-08-21T01:11:14;96881.34;;;12.75;100.00
46614;BME280;32338;50.430;6.806;2022-08-21T01:13:43;96879.53;;;12.76;100.00
46614;BME280;32338;50.430;6.806;2022-08-21T01:16:14;96874.19;;;12.69;100.00
46614;BME280;32338;50.430;6.806;2022-08-21T01:18:42;96880.13;;;12.64;100.00
46614;BME280;32338;50.430;6.806;2022-08-21T01:21:13;96880.34;;;12.70;100.00
46614;BME280;32338;50.430;6.806;2022-08-21T01:23:42;96875.19;;;12.61;100.00
46614;BME280;32338;50.430;6.806;2022-08-21T01:26:10;96878.63;;;12.48;100.00
46614;BME280;32338;50.430;6.806;2022-08-21T01:28:41;96878.56;;;12.35;100.00
46614;BME280;32338;50.430;6.806;2022-08-21T01:31:10;96877.34;;;12.38;100.00
46614;BME280;32338;50.430;6.806;2022-08-21T01:33:40;96877.19;;;12.46;100.00
46614;BME280;32338;50.430;6.806;2022-08-21T01:36:07;96880.00;;;12.38;100.00
46614;BME280;32338;50.430;6.806;2022-08-21T01:38:35;96882.84;;;12.01;100.00
46614;BME280;32338;50.430;6.806;2022-08-21T01:41:02;96883.81;;;11.93;100.00
46614;BME280;32338;50.430;6.806;2022-08-21T01:43:28;96886.53;;;12.00;100.00
46614;BME280;32338;50.430;6.806;2022-08-21T01:45:55;96877.66;;;11.86;100.00
46614;BME280;32338;50.430;6.806;2022-08-21T01:48:22;96886.09;;;11.96;100.00
46614;BME280;32338;50.430;6.806;2022-08-21T01:50:48;96887.22;;;11.87;100.00
46614;BME280;32338;50.430;6.806;2022-08-21T01:53:15;96884.31;;;12.10;100.00
46614;BME280;32338;50.430;6.806;2022-08-21T01:55:43;96886.53;;;12.07;100.00
46614;BME280;32338;50.430;6.806;2022-08-21T01:58:10;96875.38;;;12.11;100.00
46614;BME280;32338;50.430;6.806;2022-08-21T02:00:37;96876.44;;;12.17;100.00
46614;BME280;32338;50.430;6.806;2022-08-21T02:03:04;96876.22;;;12.12;100.00
46614;BME280;32338;50.430;6.806;2022-08-21T02:05:31;96871.28;;;12.09;100.00
46614;BME280;32338;50.430;6.806;2022-08-21T02:07:57;96861.13;;;11.84;100.00
46614;BME280;32338;50.430;6.806;2022-08-21T02:10:26;96866.63;;;11.54;100.00
46614;BME280;32338;50.430;6.806;2022-08-21T02:12:55;96869.19;;;11.41;100.00
46614;BME280;32338;50.430;6.806;2022-08-21T02:15:22;96869.09;;;11.56;100.00
46614;BME280;32338;50.430;6.806;2022-08-21T02:17:51;96867.78;;;11.45;100.00
46614;BME280;32338;50.430;6.806;2022-08-21T02:20:21;96867.50;;;11.61;100.00
46614;BME280;32338;50.430;6.806;2022-08-21T02:22:48;96867.78;;;11.73;100.00
46614;BME280;32338;50.430;6.806;2022-08-21T02:25:16;96867.03;;;11.79;100.00
46614;BME280;32338;50.430;6.806;2022-08-21T02:27:44;96862.34;;;11.81;100.00
46614;BME280;32338;50.430;6.806;2022-08-21T02:30:16;96861.97;;;11.84;100.00
46614;BME280;32338;50.430;6.806;2022-08-21T02:32:42;96863.16;;;11.82;100.00
46614;BME280;32338;50.430;6.806;2022-08-21T02:35:11;96861.09;;;11.77;100.00
46614;BME280;32338;50.430;6.806;2022-08-21T02:37:46;96861.63;;;11.66;100.00
46614;BME280;32338;50.430;6.806;2022-08-21T02:40:14;96846.75;;;11.65;100.00
46614;BME280;32338;50.430;6.806;2022-08-21T02:42:41;96853.13;;;11.71;100.00
46614;BME280;32338;50.430;6.806;2022-08-21T02:45:10;96854.78;;;11.50;100.00
46614;BME280;32338;50.430;6.806;2022-08-21T02:47:38;96851.88;;;11.38;100.00
46614;BME280;32338;50.430;6.806;2022-08-21T02:50:06;96860.22;;;11.20;100.00
46614;BME280;32338;50.430;6.806;2022-08-21T02:52:33;96856.34;;;10.94;100.00
46614;BME280;32338;50.430;6.806;2022-08-21T02:55:00;96857.28;;;11.08;100.00
46614;BME280;32338;50.430;6.806;2022-08-21T02:57:27;96854.38;;;11.25;100.00
46614;BME280;32338;50.430;6.806;2022-08-21T02:59:54;96856.84;;;11.26;100.00
46614;BME280;32338;50.430;6.806;2022-08-21T03:02:20;96861.16;;;11.34;100.00
46614;BME280;32338;50.430;6.806;2022-08-21T03:04:49;96859.84;;;11.45;100.00
46614;BME280;32338;50.430;6.806;2022-08-21T03:07:15;96860.66;;;11.45;100.00
46614;BME280;32338;50.430;6.806;2022-08-21T03:09:42;96860.72;;;11.52;100.00
46614;BME280;32338;50.430;6.806;2022-08-21T03:12:09;96866.38;;;11.49;100.00
46614;BME280;32338;50.430;6.806;2022-08-21T03:14:35;96867.66;;;11.53;100.00
46614;BME280;32338;50.430;6.806;2022-08-21T03:17:03;96858.50;;;11.56;100.00
46614;BME280;32338;50.430;6.806;2022-08-21T03:19:30;96862.47;;;11.45;100.00
46614;BME280;32338;50.430;6.806;2022-08-21T03:21:58;96853.06;;;11.35;100.00
46614;BME280;32338;50.430;6.806;2022-08-21T03:24:25;96855.63;;;11.29;100.00
46614;BME280;32338;50.430;6.806;2022-08-21T03:26:51;96853.81;;;11.29;100.00
46614;BME280;32338;50.430;6.806;2022-08-21T03:29:18;96847.16;;;11.12;100.00
46614;BME280;32338;50.430;6.806;2022-08-21T03:31:45;96848.59;;;11.14;100.00
46614;BME280;32338;50.430;6.806;2022-08-21T03:34:11;96850.22;;;11.15;100.00
46614;BME280;32338;50.430;6.806;2022-08-21T03:36:38;96851.31;;;10.99;100.00
46614;BME280;32338;50.430;6.806;2022-08-21T03:39:06;96856.75;;;10.76;100.00
46614;BME280;32338;50.430;6.806;2022-08-21T03:41:33;96866.00;;;10.65;100.00
46614;BME280;32338;50.430;6.806;2022-08-21T03:43:59;96850.50;;;10.41;100.00
46614;BME280;32338;50.430;6.806;2022-08-21T03:46:26;96856.00;;;10.61;100.00
46614;BME280;32338;50.430;6.806;2022-08-21T03:48:52;96859.78;;;10.73;100.00
46614;BME280;32338;50.430;6.806;2022-08-21T03:51:19;96855.22;;;10.82;100.00
46614;BME280;32338;50.430;6.806;2022-08-21T03:53:45;96860.81;;;10.94;100.00
46614;BME280;32338;50.430;6.806;2022-08-21T03:56:13;96855.59;;;11.00;100.00
46614;BME280;32338;50.430;6.806;2022-08-21T03:58:41;96854.56;;;11.01;100.00
46614;BME280;32338;50.430;6.806;2022-08-21T04:01:09;96853.13;;;10.99;100.00
46614;BME280;32338;50.430;6.806;2022-08-21T04:03:36;96853.97;;;10.99;100.00
46614;BME280;32338;50.430;6.806;2022-08-21T04:06:04;96859.06;;;11.01;100.00
46614;BME280;32338;50.430;6.806;2022-08-21T04:08:31;96858.59;;;10.97;100.00
46614;BME280;32338;50.430;6.806;2022-08-21T04:10:58;96867.94;;;10.93;100.00
46614;BME280;32338;50.430;6.806;2022-08-21T04:13:26;96860.03;;;10.78;100.00
46614;BME280;32338;50.430;6.806;2022-08-21T04:15:53;96859.63;;;10.60;100.00
46614;BME280;32338;50.430;6.806;2022-08-21T04:18:20;96868.22;;;10.47;100.00
46614;BME280;32338;50.430;6.806;2022-08-21T04:20:50;96868.38;;;10.30;100.00
46614;BME280;32338;50.430;6.806;2022-08-21T04:23:18;96864.41;;;10.19;100.00
46614;BME280;32338;50.430;6.806;2022-08-21T04:25:45;96866.34;;;10.41;100.00
46614;BME280;32338;50.430;6.806;2022-08-21T04:28:11;96867.59;;;10.45;100.00
46614;BME280;32338;50.430;6.806;2022-08-21T04:30:39;96871.34;;;10.50;100.00
46614;BME280;32338;50.430;6.806;2022-08-21T04:33:06;96870.75;;;10.55;100.00
46614;BME280;32338;50.430;6.806;2022-08-21T04:35:33;96867.38;;;10.61;100.00
46614;BME280;32338;50.430;6.806;2022-08-21T04:38:00;96877.19;;;10.67;100.00
46614;BME280;32338;50.430;6.806;2022-08-21T04:40:27;96870.13;;;10.53;100.00
46614;BME280;32338;50.430;6.806;2022-08-21T04:42:56;96881.31;;;10.55;100.00
46614;BME280;32338;50.430;6.806;2022-08-21T04:45:27;96876.13;;;10.62;100.00
46614;BME280;32338;50.430;6.806;2022-08-21T04:47:58;96885.84;;;10.61;100.00
46614;BME280;32338;50.430;6.806;2022-08-21T04:50:28;96885.50;;;10.64;100.00
46614;BME280;32338;50.430;6.806;2022-08-21T04:52:56;96878.94;;;10.60;100.00
46614;BME280;32338;50.430;6.806;2022-08-21T04:55:24;96884.22;;;10.60;100.00
46614;BME280;32338;50.430;6.806;2022-08-21T04:57:52;96887.25;;;10.57;100.00
46614;BME280;32338;50.430;6.806;2022-08-21T05:00:20;96886.59;;;10.55;100.00
46614;BME280;32338;50.430;6.806;2022-08-21T05:02:51;96885.84;;;10.61;100.00
46614;BME280;32338;50.430;6.806;2022-08-21T05:05:24;96888.75;;;10.66;100.00
46614;BME280;32338;50.430;6.806;2022-08-21T05:07:51;96885.97;;;10.68;100.00
46614;BME280;32338;50.430;6.806;2022-08-21T05:10:19;96891.06;;;10.69;100.00
46614;BME280;32338;50.430;6.806;2022-08-21T05:12:47;96889.63;;;10.52;100.00
46614;BME280;32338;50.430;6.806;2022-08-21T05:15:14;96893.28;;;10.36;100.00
46614;BME280;32338;50.430;6.806;2022-08-21T05:17:42;96886.91;;;10.15;100.00
46614;BME280;32338;50.430;6.806;2022-08-21T05:20:10;96891.16;;;10.01;100.00
46614;BME280;32338;50.430;6.806;2022-08-21T05:22:39;96887.06;;;10.14;100.00
46614;BME280;32338;50.430;6.806;2022-08-21T05:25:07;96892.63;;;10.19;100.00
46614;BME280;32338;50.430;6.806;2022-08-21T05:27:34;96891.16;;;10.01;100.00
46614;BME280;32338;50.430;6.806;2022-08-21T05:30:01;96892.97;;;9.86;100.00
46614;BME280;32338;50.430;6.806;2022-08-21T05:32:28;96892.06;;;9.94;100.00
46614;BME280;32338;50.430;6.806;2022-08-21T05:34:55;96885.16;;;10.07;100.00
46614;BME280;32338;50.430;6.806;2022-08-21T05:37:22;96876.16;;;10.02;100.00
46614;BME280;32338;50.430;6.806;2022-08-21T05:39:50;96881.16;;;9.97;100.00
46614;BME280;32338;50.430;6.806;2022-08-21T05:42:16;96883.06;;;10.03;100.00
46614;BME280;32338;50.430;6.806;2022-08-21T05:44:43;96876.03;;;10.10;100.00
46614;BME280;32338;50.430;6.806;2022-08-21T05:47:10;96881.97;;;10.27;100.00
46614;BME280;32338;50.430;6.806;2022-08-21T05:49:37;96883.19;;;10.40;100.00
46614;BME280;32338;50.430;6.806;2022-08-21T05:52:04;96883.88;;;10.63;100.00
46614;BME280;32338;50.430;6.806;2022-08-21T05:54:31;96877.19;;;10.67;100.00
46614;BME280;32338;50.430;6.806;2022-08-21T05:56:59;96875.06;;;10.78;100.00
46614;BME280;32338;50.430;6.806;2022-08-21T05:59:25;96877.09;;;10.76;100.00
46614;BME280;32338;50.430;6.806;2022-08-21T06:01:53;96880.81;;;10.81;100.00
46614;BME280;32338;50.430;6.806;2022-08-21T06:04:19;96879.59;;;10.84;100.00
46614;BME280;32338;50.430;6.806;2022-08-21T06:06:46;96882.34;;;10.91;100.00
46614;BME280;32338;50.430;6.806;2022-08-21T06:09:13;96888.13;;;11.01;100.00
46614;BME280;32338;50.430;6.806;2022-08-21T06:11:40;96890.28;;;11.12;100.00
46614;BME280;32338;50.430;6.806;2022-08-21T06:14:08;96888.13;;;11.23;100.00
46614;BME280;32338;50.430;6.806;2022-08-21T06:16:35;96882.72;;;11.31;100.00
46614;BME280;32338;50.430;6.806;2022-08-21T06:19:01;96883.00;;;11.43;100.00
46614;BME280;32338;50.430;6.806;2022-08-21T06:21:28;96881.44;;;11.48;100.00
46614;BME280;32338;50.430;6.806;2022-08-21T06:23:55;96887.41;;;11.57;100.00
46614;BME280;32338;50.430;6.806;2022-08-21T06:26:22;96868.56;;;11.67;100.00
46614;BME280;32338;50.430;6.806;2022-08-21T06:28:49;96877.78;;;11.78;100.00
46614;BME280;32338;50.430;6.806;2022-08-21T06:31:19;96874.75;;;11.81;100.00
46614;BME280;32338;50.430;6.806;2022-08-21T06:33:46;96870.72;;;11.85;100.00
46614;BME280;32338;50.430;6.806;2022-08-21T06:36:13;96877.06;;;11.91;100.00
46614;BME280;32338;50.430;6.806;2022-08-21T06:38:40;96878.13;;;11.96;100.00
46614;BME280;32338;50.430;6.806;2022-08-21T06:41:07;96870.06;;;12.05;100.00
46614;BME280;32338;50.430;6.806;2022-08-21T06:43:34;96870.91;;;12.12;100.00
46614;BME280;32338;50.430;6.806;2022-08-21T06:46:01;96871.56;;;12.21;100.00
46614;BME280;32338;50.430;6.806;2022-08-21T06:48:29;96869.97;;;12.26;100.00
46614;BME280;32338;50.430;6.806;2022-08-21T06:50:58;96866.09;;;12.29;100.00
46614;BME280;32338;50.430;6.806;2022-08-21T06:53:24;96865.75;;;12.39;100.00
46614;BME280;32338;50.430;6.806;2022-08-21T06:55:51;96871.47;;;12.49;100.00
46614;BME280;32338;50.430;6.806;2022-08-21T06:58:18;96867.88;;;12.63;100.00
46614;BME280;32338;50.430;6.806;2022-08-21T07:00:47;96865.88;;;12.72;100.00
46614;BME280;32338;50.430;6.806;2022-08-21T07:03:19;96863.44;;;12.84;100.00
46614;BME280;32338;50.430;6.806;2022-08-21T07:05:48;96858.97;;;12.91;100.00
46614;BME280;32338;50.430;6.806;2022-08-21T07:08:15;96854.50;;;12.98;100.00
46614;BME280;32338;50.430;6.806;2022-08-21T07:10:42;96860.81;;;13.04;100.00
46614;BME280;32338;50.430;6.806;2022-08-21T07:13:09;96857.78;;;13.14;100.00
46614;BME280;32338;50.430;6.806;2022-08-21T07:15:36;96854.34;;;13.34;100.00
46614;BME280;32338;50.430;6.806;2022-08-21T07:18:03;96863.72;;;13.36;100.00
46614;BME280;32338;50.430;6.806;2022-08-21T07:20:32;96859.69;;;13.47;100.00
46614;BME280;32338;50.430;6.806;2022-08-21T07:23:02;96856.41;;;13.58;100.00
46614;BME280;32338;50.430;6.806;2022-08-21T07:25:29;96863.13;;;13.68;100.00
46614;BME280;32338;50.430;6.806;2022-08-21T07:27:56;96855.97;;;13.82;100.00
46614;BME280;32338;50.430;6.806;2022-08-21T07:30:24;96857.41;;;13.91;100.00
46614;BME280;32338;50.430;6.806;2022-08-21T07:32:51;96856.13;;;14.07;100.00
46614;BME280;32338;50.430;6.806;2022-08-21T07:35:20;96862.63;;;14.18;100.00
46614;BME280;32338;50.430;6.806;2022-08-21T07:37:47;96866.69;;;14.34;100.00
46614;BME280;32338;50.430;6.806;2022-08-21T07:40:16;96863.97;;;14.47;100.00
46614;BME280;32338;50.430;6.806;2022-08-21T07:42:44;96859.63;;;14.59;100.00
46614;BME280;32338;50.430;6.806;2022-08-21T07:45:12;96865.72;;;14.73;100.00
46614;BME280;32338;50.430;6.806;2022-08-21T07:47:39;96868.75;;;14.84;100.00
46614;BME280;32338;50.430;6.806;2022-08-21T07:50:06;96865.59;;;15.00;100.00
46614;BME280;32338;50.430;6.806;2022-08-21T07:52:34;96859.75;;;15.17;100.00
46614;BME280;32338;50.430;6.806;2022-08-21T07:55:00;96865.78;;;15.31;100.00
46614;BME280;32338;50.430;6.806;2022-08-21T07:57:28;96857.94;;;15.43;100.00
46614;BME280;32338;50.430;6.806;2022-08-21T07:59:55;96860.69;;;15.54;100.00
46614;BME280;32338;50.430;6.806;2022-08-21T08:02:23;96871.31;;;15.61;89.83
46614;BME280;32338;50.430;6.806;2022-08-21T08:04:50;96869.06;;;15.83;91.06
46614;BME280;32338;50.430;6.806;2022-08-21T08:07:17;96865.84;;;16.00;84.15
46614;BME280;32338;50.430;6.806;2022-08-21T08:09:44;96866.97;;;16.11;87.88
46614;BME280;32338;50.430;6.806;2022-08-21T08:12:11;96868.09;;;16.40;80.78
46614;BME280;32338;50.430;6.806;2022-08-21T08:14:39;96868.66;;;16.61;79.66
46614;BME280;32338;50.430;6.806;2022-08-21T08:17:05;96859.53;;;16.68;78.57
46614;BME280;32338;50.430;6.806;2022-08-21T08:19:32;96861.53;;;16.73;81.12
46614;BME280;32338;50.430;6.806;2022-08-21T08:21:59;96854.13;;;16.75;82.80
46614;BME280;32338;50.430;6.806;2022-08-21T08:24:25;96866.47;;;16.88;77.08
46614;BME280;32338;50.430;6.806;2022-08-21T08:26:52;96863.84;;;17.00;76.08
46614;BME280;32338;50.430;6.806;2022-08-21T08:29:22;96868.84;;;17.27;74.32
46614;BME280;32338;50.430;6.806;2022-08-21T08:31:50;96863.38;;;17.22;76.05
46614;BME280;32338;50.430;6.806;2022-08-21T08:34:17;96859.78;;;17.28;74.58
46614;BME280;32338;50.430;6.806;2022-08-21T08:36:45;96857.72;;;17.42;74.78
46614;BME280;32338;50.430;6.806;2022-08-21T08:39:11;96855.06;;;17.65;74.12
46614;BME280;32338;50.430;6.806;2022-08-21T08:41:39;96857.84;;;17.71;74.03
46614;BME280;32338;50.430;6.806;2022-08-21T08:44:07;96858.56;;;17.78;73.63
46614;BME280;32338;50.430;6.806;2022-08-21T08:46:36;96855.41;;;17.81;72.78
46614;BME280;32338;50.430;6.806;2022-08-21T08:49:11;96854.25;;;17.77;73.04
46614;BME280;32338;50.430;6.806;2022-08-21T08:51:44;96858.19;;;17.86;73.07
46614;BME280;32338;50.430;6.806;2022-08-21T08:54:14;96852.91;;;17.98;73.75
46614;BME280;32338;50.430;6.806;2022-08-21T08:56:42;96848.22;;;18.05;71.77
46614;BME280;32338;50.430;6.806;2022-08-21T08:59:14;96838.59;;;18.04;70.81
46614;BME280;32338;50.430;6.806;2022-08-21T09:01:42;96843.31;;;18.14;71.42
46614;BME280;32338;50.430;6.806;2022-08-21T09:04:11;96843.66;;;18.18;70.06
46614;BME280;32338;50.430;6.806;2022-08-21T09:06:52;96841.09;;;18.23;71.79
46614;BME280;32338;50.430;6.806;2022-08-21T09:09:33;96841.34;;;18.33;70.80
46614;BME280;32338;50.430;6.806;2022-08-21T09:12:05;96832.13;;;18.41;71.73
46614;BME280;32338;50.430;6.806;2022-08-21T09:14:54;96823.16;;;18.76;68.04
46614;BME280;32338;50.430;6.806;2022-08-21T09:17:36;96828.28;;;18.77;68.63
46614;BME280;32338;50.430;6.806;2022-08-21T09:20:17;96832.66;;;18.95;68.00
46614;BME280;32338;50.430;6.806;2022-08-21T09:22:57;96834.31;;;19.14;67.74
46614;BME280;32338;50.430;6.806;2022-08-21T09:25:28;96824.75;;;19.35;67.08
46614;BME280;32338;50.430;6.806;2022-08-21T09:27:56;96837.75;;;19.43;62.74
46614;BME280;32338;50.430;6.806;2022-08-21T09:30:26;96832.16;;;19.44;62.00
46614;BME280;32338;50.430;6.806;2022-08-21T09:32:53;96833.44;;;19.42;63.93
46614;BME280;32338;50.430;6.806;2022-08-21T09:35:22;96829.53;;;19.50;63.01
46614;BME280;32338;50.430;6.806;2022-08-21T09:37:53;96826.03;;;19.66;63.18
46614;BME280;32338;50.430;6.806;2022-08-21T09:40:29;96828.22;;;19.86;61.38
46614;BME280;32338;50.430;6.806;2022-08-21T09:42:58;96827.50;;;19.91;59.05
46614;BME280;32338;50.430;6.806;2022-08-21T09:45:25;96827.44;;;19.86;59.78
46614;BME280;32338;50.430;6.806;2022-08-21T09:47:51;96826.13;;;19.88;61.36
46614;BME280;32338;50.430;6.806;2022-08-21T09:50:23;96832.41;;;19.99;61.11
46614;BME280;32338;50.430;6.806;2022-08-21T09:52:53;96827.69;;;20.06;60.27
46614;BME280;32338;50.430;6.806;2022-08-21T09:55:30;96827.53;;;20.13;57.12
46614;BME280;32338;50.430;6.806;2022-08-21T09:58:15;96820.88;;;20.16;55.39
46614;BME280;32338;50.430;6.806;2022-08-21T10:00:42;96815.41;;;20.11;54.46
46614;BME280;32338;50.430;6.806;2022-08-21T10:03:11;96809.25;;;20.10;56.52
46614;BME280;32338;50.430;6.806;2022-08-21T10:05:40;96807.84;;;20.24;57.12
46614;BME280;32338;50.430;6.806;2022-08-21T10:08:17;96802.31;;;20.36;56.35
46614;BME280;32338;50.430;6.806;2022-08-21T10:10:44;96796.59;;;20.50;57.10
46614;BME280;32338;50.430;6.806;2022-08-21T10:13:13;96785.47;;;20.63;57.27
46614;BME280;32338;50.430;6.806;2022-08-21T10:15:51;96787.06;;;20.64;56.86
46614;BME280;32338;50.430;6.806;2022-08-21T10:18:22;96784.75;;;20.73;56.28
46614;BME280;32338;50.430;6.806;2022-08-21T10:20:58;96784.59;;;20.80;56.26
46614;BME280;32338;50.430;6.806;2022-08-21T10:23:38;96789.50;;;20.66;55.51
46614;BME280;32338;50.430;6.806;2022-08-21T10:26:13;96793.78;;;20.89;54.89
46614;BME280;32338;50.430;6.806;2022-08-21T10:29:03;96783.25;;;21.10;54.22
46614;BME280;32338;50.430;6.806;2022-08-21T10:31:41;96793.84;;;21.27;53.90
46614;BME280;32338;50.430;6.806;2022-08-21T10:34:23;96783.97;;;21.32;51.58
46614;BME280;32338;50.430;6.806;2022-08-21T10:37:09;96780.72;;;21.30;52.65
46614;BME280;32338;50.430;6.806;2022-08-21T10:39:46;96785.78;;;21.27;50.01
46614;BME280;32338;50.430;6.806;2022-08-21T10:42:22;96773.69;;;21.24;51.91
46614;BME280;32338;50.430;6.806;2022-08-21T10:45:00;96778.91;;;21.41;51.58
46614;BME280;32338;50.430;6.806;2022-08-21T10:47:34;96782.19;;;21.48;51.00
46614;BME280;32338;50.430;6.806;2022-08-21T10:50:08;96784.09;;;21.53;47.10
46614;BME280;32338;50.430;6.806;2022-08-21T10:52:48;96780.66;;;21.58;45.66
46614;BME280;32338;50.430;6.806;2022-08-21T10:55:20;96786.47;;;21.49;46.57
46614;BME280;32338;50.430;6.806;2022-08-21T10:57:54;96789.22;;;21.54;47.43
46614;BME280;32338;50.430;6.806;2022-08-21T11:00:28;96787.59;;;21.48;46.14
46614;BME280;32338;50.430;6.806;2022-08-21T11:03:00;96784.06;;;21.48;46.48
46614;BME280;32338;50.430;6.806;2022-08-21T11:05:31;96778.72;;;21.53;45.70
46614;BME280;32338;50.430;6.806;2022-08-21T11:08:03;96788.59;;;21.75;47.87
46614;BME280;32338;50.430;6.806;2022-08-21T11:10:35;96770.09;;;21.83;47.11
46614;BME280;32338;50.430;6.806;2022-08-21T11:13:08;96777.91;;;21.90;46.81
46614;BME280;32338;50.430;6.806;2022-08-21T11:15:43;96767.97;;;21.96;45.64
46614;BME280;32338;50.430;6.806;2022-08-21T11:18:21;96771.31;;;22.18;45.74
46614;BME280;32338;50.430;6.806;2022-08-21T11:20:59;96770.81;;;22.32;43.37
46614;BME280;32338;50.430;6.806;2022-08-21T11:23:31;96766.75;;;22.24;44.05
46614;BME280;32338;50.430;6.806;2022-08-21T11:26:02;96761.44;;;22.40;45.48
46614;BME280;32338;50.430;6.806;2022-08-21T11:28:33;96763.59;;;22.38;47.02
46614;BME280;32338;50.430;6.806;2022-08-21T11:31:09;96756.41;;;22.59;48.80
46614;BME280;32338;50.430;6.806;2022-08-21T11:33:57;96757.75;;;22.56;44.56
46614;BME280;32338;50.430;6.806;2022-08-21T11:36:34;96762.28;;;22.50;44.98
46614;BME280;32338;50.430;6.806;2022-08-21T11:39:11;96766.34;;;22.63;45.60
46614;BME280;32338;50.430;6.806;2022-08-21T11:41:43;96749.91;;;22.55;44.39
46614;BME280;32338;50.430;6.806;2022-08-21T11:44:19;96752.94;;;22.89;45.33
46614;BME280;32338;50.430;6.806;2022-08-21T11:46:59;96747.28;;;22.86;43.77
46614;BME280;32338;50.430;6.806;2022-08-21T11:49:53;96756.97;;;23.02;44.96
46614;BME280;32338;50.430;6.806;2022-08-21T11:52:26;96748.13;;;23.17;44.96
46614;BME280;32338;50.430;6.806;2022-08-21T11:54:59;96752.44;;;23.23;45.12
46614;BME280;32338;50.430;6.806;2022-08-21T11:57:31;96742.16;;;23.51;41.81
46614;BME280;32338;50.430;6.806;2022-08-21T12:00:03;96748.91;;;23.38;42.42
46614;BME280;32338;50.430;6.806;2022-08-21T12:02:35;96754.03;;;23.14;42.69
46614;BME280;32338;50.430;6.806;2022-08-21T12:05:06;96751.06;;;23.00;41.82
46614;BME280;32338;50.430;6.806;2022-08-21T12:07:37;96742.44;;;22.93;42.31
46614;BME280;32338;50.430;6.806;2022-08-21T12:10:10;96740.56;;;23.40;42.25
46614;BME280;32338;50.430;6.806;2022-08-21T12:12:39;96740.81;;;23.43;43.29
46614;BME280;32338;50.430;6.806;2022-08-21T12:15:26;96740.50;;;23.66;43.45
46614;BME280;32338;50.430;6.806;2022-08-21T12:17:58;96746.41;;;23.83;41.54
46614;BME280;32338;50.430;6.806;2022-08-21T12:20:35;96736.25;;;23.34;40.96
46614;BME280;32338;50.430;6.806;2022-08-21T12:23:14;96734.91;;;23.05;42.41
46614;BME280;32338;50.430;6.806;2022-08-21T12:25:46;96737.03;;;23.03;42.24
46614;BME280;32338;50.430;6.806;2022-08-21T12:28:15;96734.63;;;22.91;43.17
46614;BME280;32338;50.430;6.806;2022-08-21T12:30:47;96729.78;;;23.09;42.37
46614;BME280;32338;50.430;6.806;2022-08-21T12:33:21;96722.53;;;23.35;43.05
46614;BME280;32338;50.430;6.806;2022-08-21T12:35:50;96724.88;;;23.68;42.27
46614;BME280;32338;50.430;6.806;2022-08-21T12:38:21;96723.53;;;24.36;40.98
46614;BME280;32338;50.430;6.806;2022-08-21T12:40:53;96722.47;;;24.82;39.55
46614;BME280;32338;50.430;6.806;2022-08-21T12:43:28;96720.66;;;25.36;38.70
46614;BME280;32338;50.430;6.806;2022-08-21T12:45:56;96716.97;;;25.80;38.66
46614;BME280;32338;50.430;6.806;2022-08-21T12:48:28;96716.81;;;25.96;37.72
46614;BME280;32338;50.430;6.806;2022-08-21T12:51:04;96725.34;;;25.84;36.52
46614;BME280;32338;50.430;6.806;2022-08-21T12:53:35;96716.50;;;26.21;35.64
46614;BME280;32338;50.430;6.806;2022-08-21T12:56:12;96720.38;;;25.91;36.15
46614;BME280;32338;50.430;6.806;2022-08-21T12:58:41;96721.59;;;25.80;35.45
46614;BME280;32338;50.430;6.806;2022-08-21T13:01:17;96717.78;;;26.05;34.22
46614;BME280;32338;50.430;6.806;2022-08-21T13:03:45;96717.56;;;25.77;35.18
46614;BME280;32338;50.430;6.806;2022-08-21T13:06:14;96716.00;;;25.71;34.85
46614;BME280;32338;50.430;6.806;2022-08-21T13:08:43;96719.81;;;25.70;33.99